sensor_id;sensor_type;location;lat;lon;timestamp;P1;durP1;ratioP1;P2;durP2;ratioP2
27495;SDS011;14929;51.336;9.416;2023-11-21T00:01:12;1.33;;;1.23;;
27495;SDS011;14929;51.336;9.416;2023-11-21T00:03:40;2.13;;;1.40;;
27495;SDS011;14929;51.336;9.416;2023-11-21T00:06:07;1.10;;;1.10;;
27495;SDS011;14929;51.336;9.416;2023-11-21T00:08:36;1.63;;;1.38;;
27495;SDS011;14929;51.336;9.416;2023-11-21T00:11:04;1.98;;;1.48;;
27495;SDS011;14929;51.336;9.416;2023-11-21T00:13:31;3.92;;;1.50;;
27495;SDS011;14929;51.336;9.416;2023-11-21T00:16:00;0.98;;;0.98;;
27495;SDS011;14929;51.336;9.416;2023-11-21T00:18:28;1.50;;;1.40;;
27495;SDS011;14929;51.336;9.416;2023-11-21T00:20:55;0.90;;;0.90;;
27495;SDS011;14929;51.336;9.416;2023-11-21T00:23:23;1.08;;;0.98;;
27495;SDS011;14929;51.336;9.416;2023-11-21T00:25:52;1.30;;;1.10;;
27495;SDS011;14929;51.336;9.416;2023-11-21T00:28:20;2.30;;;1.40;;
27495;SDS011;14929;51.336;9.416;2023-11-21T00:30:47;2.72;;;1.92;;
27495;SDS011;14929;51.336;9.416;2023-11-21T00:33:15;1.40;;;1.30;;
27495;SDS011;14929;51.336;9.416;2023-11-21T00:35:42;0.90;;;0.90;;
27495;SDS011;14929;51.336;9.416;2023-11-21T00:38:10;3.00;;;1.70;;
27495;SDS011;14929;51.336;9.416;2023-11-21T00:40:37;3.47;;;1.50;;
27495;SDS011;14929;51.336;9.416;2023-11-21T00:43:06;2.78;;;1.50;;
27495;SDS011;14929;51.336;9.416;2023-11-21T00:45:33;2.15;;;1.65;;
27495;SDS011;14929;51.336;9.416;2023-11-21T00:48:01;1.73;;;1.63;;
27495;SDS011;14929;51.336;9.416;2023-11-21T00:50:29;1.50;;;1.40;;
27495;SDS011;14929;51.336;9.416;2023-11-21T00:52:57;1.60;;;1.20;;
27495;SDS011;14929;51.336;9.416;2023-11-21T00:55:24;1.95;;;1.48;;
27495;SDS011;14929;51.336;9.416;2023-11-21T00:57:53;4.68;;;2.13;;
27495;SDS011;14929;51.336;9.416;2023-11-21T01:00:22;1.63;;;1.50;;
27495;SDS011;14929;51.336;9.416;2023-11-21T01:02:49;1.52;;;1.42;;
27495;SDS011;14929;51.336;9.416;2023-11-21T01:05:17;1.55;;;1.40;;
27495;SDS011;14929;51.336;9.416;2023-11-21T01:07:45;2.13;;;1.52;;
27495;SDS011;14929;51.336;9.416;2023-11-21T01:10:12;2.35;;;1.50;;
27495;SDS011;14929;51.336;9.416;2023-11-21T01:12:41;2.03;;;1.60;;
27495;SDS011;14929;51.336;9.416;2023-11-21T01:15:08;2.42;;;1.25;;
27495;SDS011;14929;51.336;9.416;2023-11-21T01:17:38;1.35;;;1.25;;
27495;SDS011;14929;51.336;9.416;2023-11-21T01:20:06;2.25;;;1.80;;
27495;SDS011;14929;51.336;9.416;2023-11-21T01:22:37;1.58;;;1.33;;
27495;SDS011;14929;51.336;9.416;2023-11-21T01:25:05;1.50;;;1.20;;
27495;SDS011;14929;51.336;9.416;2023-11-21T01:27:33;2.53;;;1.13;;
27495;SDS011;14929;51.336;9.416;2023-11-21T01:30:01;1.45;;;1.00;;
27495;SDS011;14929;51.336;9.416;2023-11-21T01:32:28;0.93;;;0.93;;
27495;SDS011;14929;51.336;9.416;2023-11-21T01:34:57;0.70;;;0.70;;
27495;SDS011;14929;51.336;9.416;2023-11-21T01:37:25;1.48;;;1.35;;
27495;SDS011;14929;51.336;9.416;2023-11-21T01:39:53;0.80;;;0.80;;
27495;SDS011;14929;51.336;9.416;2023-11-21T01:42:21;1.20;;;1.10;;
27495;SDS011;14929;51.336;9.416;2023-11-21T01:44:49;0.70;;;0.70;;
27495;SDS011;14929;51.336;9.416;2023-11-21T01:47:16;1.30;;;1.20;;
27495;SDS011;14929;51.336;9.416;2023-11-21T01:49:44;2.60;;;1.33;;
27495;SDS011;14929;51.336;9.416;2023-11-21T01:52:13;1.50;;;1.25;;
27495;SDS011;14929;51.336;9.416;2023-11-21T01:54:41;3.05;;;1.40;;
27495;SDS011;14929;51.336;9.416;2023-11-21T01:57:09;4.53;;;2.17;;
27495;SDS011;14929;51.336;9.416;2023-11-21T01:59:37;3.53;;;1.70;;
27495;SDS011;14929;51.336;9.416;2023-11-21T02:02:05;1.55;;;1.40;;
27495;SDS011;14929;51.336;9.416;2023-11-21T02:04:33;1.10;;;1.05;;
27495;SDS011;14929;51.336;9.416;2023-11-21T02:07:01;1.98;;;1.67;;
27495;SDS011;14929;51.336;9.416;2023-11-21T02:09:31;4.18;;;1.30;;
27495;SDS011;14929;51.336;9.416;2023-11-21T02:11:59;2.20;;;1.40;;
27495;SDS011;14929;51.336;9.416;2023-11-21T02:14:28;3.05;;;1.33;;
27495;SDS011;14929;51.336;9.416;2023-11-21T02:16:56;1.27;;;1.17;;
27495;SDS011;14929;51.336;9.416;2023-11-21T02:19:25;4.15;;;2.10;;
27495;SDS011;14929;51.336;9.416;2023-11-21T02:21:54;1.85;;;1.65;;
27495;SDS011;14929;51.336;9.416;2023-11-21T02:24:27;4.22;;;1.60;;
27495;SDS011;14929;51.336;9.416;2023-11-21T02:26:54;2.30;;;2.15;;
27495;SDS011;14929;51.336;9.416;2023-11-21T02:29:22;3.70;;;1.50;;
27495;SDS011;14929;51.336;9.416;2023-11-21T02:31:53;2.05;;;1.75;;
27495;SDS011;14929;51.336;9.416;2023-11-21T02:34:21;1.75;;;1.52;;
27495;SDS011;14929;51.336;9.416;2023-11-21T02:36:50;1.60;;;1.50;;
27495;SDS011;14929;51.336;9.416;2023-11-21T02:39:17;1.45;;;1.20;;
27495;SDS011;14929;51.336;9.416;2023-11-21T02:41:48;1.40;;;1.30;;
27495;SDS011;14929;51.336;9.416;2023-11-21T02:44:16;1.00;;;1.00;;
27495;SDS011;14929;51.336;9.416;2023-11-21T02:46:43;1.20;;;1.10;;
27495;SDS011;14929;51.336;9.416;2023-11-21T02:49:12;1.50;;;1.40;;
27495;SDS011;14929;51.336;9.416;2023-11-21T02:51:39;1.40;;;1.30;;
27495;SDS011;14929;51.336;9.416;2023-11-21T02:54:07;1.10;;;1.10;;
27495;SDS011;14929;51.336;9.416;2023-11-21T02:56:36;1.85;;;1.75;;
27495;SDS011;14929;51.336;9.416;2023-11-21T02:59:06;1.73;;;1.63;;
27495;SDS011;14929;51.336;9.416;2023-11-21T03:01:34;1.50;;;1.40;;
27495;SDS011;14929;51.336;9.416;2023-11-21T03:04:01;1.60;;;1.50;;
27495;SDS011;14929;51.336;9.416;2023-11-21T03:06:29;1.45;;;1.35;;
27495;SDS011;14929;51.336;9.416;2023-11-21T03:08:56;1.10;;;1.10;;
27495;SDS011;14929;51.336;9.416;2023-11-21T03:11:23;1.65;;;1.55;;
27495;SDS011;14929;51.336;9.416;2023-11-21T03:13:51;1.00;;;1.00;;
27495;SDS011;14929;51.336;9.416;2023-11-21T03:16:20;2.55;;;1.33;;
27495;SDS011;14929;51.336;9.416;2023-11-21T03:18:47;1.45;;;1.40;;
27495;SDS011;14929;51.336;9.416;2023-11-21T03:21:15;1.48;;;1.38;;
27495;SDS011;14929;51.336;9.416;2023-11-21T03:23:43;1.58;;;1.48;;
27495;SDS011;14929;51.336;9.416;2023-11-21T03:26:11;2.15;;;2.05;;
27495;SDS011;14929;51.336;9.416;2023-11-21T03:28:39;1.83;;;1.65;;
27495;SDS011;14929;51.336;9.416;2023-11-21T03:31:06;4.65;;;1.60;;
27495;SDS011;14929;51.336;9.416;2023-11-21T03:33:36;3.25;;;1.80;;
27495;SDS011;14929;51.336;9.416;2023-11-21T03:36:03;1.60;;;1.50;;
27495;SDS011;14929;51.336;9.416;2023-11-21T03:38:32;2.10;;;1.60;;
27495;SDS011;14929;51.336;9.416;2023-11-21T03:41:00;1.70;;;1.60;;
27495;SDS011;14929;51.336;9.416;2023-11-21T03:43:27;1.95;;;1.85;;
27495;SDS011;14929;51.336;9.416;2023-11-21T03:45:55;2.80;;;2.30;;
27495;SDS011;14929;51.336;9.416;2023-11-21T03:48:22;2.97;;;2.72;;
27495;SDS011;14929;51.336;9.416;2023-11-21T03:50:51;2.47;;;2.08;;
27495;SDS011;14929;51.336;9.416;2023-11-21T03:53:18;3.13;;;2.13;;
27495;SDS011;14929;51.336;9.416;2023-11-21T03:55:46;2.22;;;2.03;;
27495;SDS011;14929;51.336;9.416;2023-11-21T03:58:14;5.65;;;1.92;;
27495;SDS011;14929;51.336;9.416;2023-11-21T04:00:41;3.90;;;2.33;;
27495;SDS011;14929;51.336;9.416;2023-11-21T04:03:09;3.00;;;2.55;;
27495;SDS011;14929;51.336;9.416;2023-11-21T04:05:36;3.38;;;2.28;;
27495;SDS011;14929;51.336;9.416;2023-11-21T04:08:05;2.00;;;1.80;;
27495;SDS011;14929;51.336;9.416;2023-11-21T04:10:33;4.35;;;2.88;;
27495;SDS011;14929;51.336;9.416;2023-11-21T04:13:00;3.58;;;2.22;;
27495;SDS011;14929;51.336;9.416;2023-11-21T04:15:27;4.28;;;2.67;;
27495;SDS011;14929;51.336;9.416;2023-11-21T04:17:55;3.60;;;2.78;;
27495;SDS011;14929;51.336;9.416;2023-11-21T04:20:22;3.55;;;2.88;;
27495;SDS011;14929;51.336;9.416;2023-11-21T04:22:50;4.13;;;3.13;;
27495;SDS011;14929;51.336;9.416;2023-11-21T04:25:19;3.63;;;2.47;;
27495;SDS011;14929;51.336;9.416;2023-11-21T04:27:48;3.25;;;2.83;;
27495;SDS011;14929;51.336;9.416;2023-11-21T04:30:15;3.55;;;3.20;;
27495;SDS011;14929;51.336;9.416;2023-11-21T04:32:43;8.30;;;3.00;;
27495;SDS011;14929;51.336;9.416;2023-11-21T04:35:11;3.28;;;2.85;;
27495;SDS011;14929;51.336;9.416;2023-11-21T04:37:38;3.80;;;3.00;;
27495;SDS011;14929;51.336;9.416;2023-11-21T04:40:06;4.82;;;3.03;;
27495;SDS011;14929;51.336;9.416;2023-11-21T04:42:36;3.30;;;3.00;;
27495;SDS011;14929;51.336;9.416;2023-11-21T04:45:04;3.65;;;3.08;;
27495;SDS011;14929;51.336;9.416;2023-11-21T04:47:36;5.43;;;3.13;;
27495;SDS011;14929;51.336;9.416;2023-11-21T04:50:04;4.18;;;3.30;;
27495;SDS011;14929;51.336;9.416;2023-11-21T04:52:32;9.15;;;4.13;;
27495;SDS011;14929;51.336;9.416;2023-11-21T04:54:59;5.70;;;3.45;;
27495;SDS011;14929;51.336;9.416;2023-11-21T04:57:28;7.38;;;5.13;;
27495;SDS011;14929;51.336;9.416;2023-11-21T04:59:57;5.03;;;3.97;;
27495;SDS011;14929;51.336;9.416;2023-11-21T05:02:24;7.65;;;4.13;;
27495;SDS011;14929;51.336;9.416;2023-11-21T05:04:52;5.45;;;4.95;;
27495;SDS011;14929;51.336;9.416;2023-11-21T05:07:21;8.75;;;5.35;;
27495;SDS011;14929;51.336;9.416;2023-11-21T05:09:48;7.40;;;4.10;;
27495;SDS011;14929;51.336;9.416;2023-11-21T05:12:16;13.40;;;3.97;;
27495;SDS011;14929;51.336;9.416;2023-11-21T05:14:43;7.00;;;4.70;;
27495;SDS011;14929;51.336;9.416;2023-11-21T05:17:13;5.68;;;3.72;;
27495;SDS011;14929;51.336;9.416;2023-11-21T05:19:40;6.35;;;5.47;;
27495;SDS011;14929;51.336;9.416;2023-11-21T05:22:08;6.07;;;3.92;;
27495;SDS011;14929;51.336;9.416;2023-11-21T05:24:37;4.25;;;3.47;;
27495;SDS011;14929;51.336;9.416;2023-11-21T05:27:05;5.13;;;4.05;;
27495;SDS011;14929;51.336;9.416;2023-11-21T05:29:34;5.10;;;4.03;;
27495;SDS011;14929;51.336;9.416;2023-11-21T05:32:03;4.13;;;3.67;;
27495;SDS011;14929;51.336;9.416;2023-11-21T05:34:32;5.90;;;3.78;;
27495;SDS011;14929;51.336;9.416;2023-11-21T05:37:00;4.00;;;3.50;;
27495;SDS011;14929;51.336;9.416;2023-11-21T05:39:27;5.10;;;4.30;;
27495;SDS011;14929;51.336;9.416;2023-11-21T05:41:54;5.82;;;3.90;;
27495;SDS011;14929;51.336;9.416;2023-11-21T05:44:22;4.10;;;3.70;;
27495;SDS011;14929;51.336;9.416;2023-11-21T05:46:50;5.18;;;3.75;;
27495;SDS011;14929;51.336;9.416;2023-11-21T05:49:18;5.60;;;4.10;;
27495;SDS011;14929;51.336;9.416;2023-11-21T05:51:48;5.20;;;3.78;;
27495;SDS011;14929;51.336;9.416;2023-11-21T05:54:15;4.35;;;3.70;;
27495;SDS011;14929;51.336;9.416;2023-11-21T05:56:42;4.43;;;4.03;;
27495;SDS011;14929;51.336;9.416;2023-11-21T05:59:10;3.85;;;3.42;;
27495;SDS011;14929;51.336;9.416;2023-11-21T06:01:37;8.48;;;4.20;;
27495;SDS011;14929;51.336;9.416;2023-11-21T06:04:05;8.45;;;4.15;;
27495;SDS011;14929;51.336;9.416;2023-11-21T06:06:33;7.07;;;5.03;;
27495;SDS011;14929;51.336;9.416;2023-11-21T06:09:02;5.45;;;4.90;;
27495;SDS011;14929;51.336;9.416;2023-11-21T06:11:30;6.15;;;4.95;;
27495;SDS011;14929;51.336;9.416;2023-11-21T06:13:58;8.32;;;5.82;;
27495;SDS011;14929;51.336;9.416;2023-11-21T06:16:25;6.38;;;5.30;;
27495;SDS011;14929;51.336;9.416;2023-11-21T06:18:53;9.20;;;5.72;;
27495;SDS011;14929;51.336;9.416;2023-11-21T06:21:20;8.45;;;5.55;;
27495;SDS011;14929;51.336;9.416;2023-11-21T06:23:48;7.72;;;5.95;;
27495;SDS011;14929;51.336;9.416;2023-11-21T06:26:16;5.97;;;5.43;;
27495;SDS011;14929;51.336;9.416;2023-11-21T06:28:45;10.05;;;6.55;;
27495;SDS011;14929;51.336;9.416;2023-11-21T06:31:12;4.55;;;4.13;;
27495;SDS011;14929;51.336;9.416;2023-11-21T06:33:40;5.60;;;4.10;;
27495;SDS011;14929;51.336;9.416;2023-11-21T06:36:08;8.13;;;5.72;;
27495;SDS011;14929;51.336;9.416;2023-11-21T06:38:37;4.80;;;4.40;;
27495;SDS011;14929;51.336;9.416;2023-11-21T06:41:05;6.15;;;5.05;;
27495;SDS011;14929;51.336;9.416;2023-11-21T06:43:34;8.95;;;5.40;;
27495;SDS011;14929;51.336;9.416;2023-11-21T06:46:02;4.95;;;4.40;;
27495;SDS011;14929;51.336;9.416;2023-11-21T06:48:30;4.38;;;3.97;;
27495;SDS011;14929;51.336;9.416;2023-11-21T06:50:57;5.63;;;4.35;;
27495;SDS011;14929;51.336;9.416;2023-11-21T06:53:24;4.97;;;3.45;;
27495;SDS011;14929;51.336;9.416;2023-11-21T06:55:52;2.40;;;2.22;;
27495;SDS011;14929;51.336;9.416;2023-11-21T06:58:19;4.10;;;3.60;;
27495;SDS011;14929;51.336;9.416;2023-11-21T07:00:48;3.55;;;3.25;;
27495;SDS011;14929;51.336;9.416;2023-11-21T07:03:17;3.88;;;3.00;;
27495;SDS011;14929;51.336;9.416;2023-11-21T07:05:45;4.18;;;3.78;;
27495;SDS011;14929;51.336;9.416;2023-11-21T07:08:12;2.90;;;2.65;;
27495;SDS011;14929;51.336;9.416;2023-11-21T07:10:40;3.30;;;2.85;;
27495;SDS011;14929;51.336;9.416;2023-11-21T07:13:07;3.90;;;3.33;;
27495;SDS011;14929;51.336;9.416;2023-11-21T07:15:37;4.45;;;4.05;;
27495;SDS011;14929;51.336;9.416;2023-11-21T07:18:06;8.65;;;5.90;;
27495;SDS011;14929;51.336;9.416;2023-11-21T07:20:33;5.10;;;4.60;;
27495;SDS011;14929;51.336;9.416;2023-11-21T07:23:01;5.35;;;4.85;;
27495;SDS011;14929;51.336;9.416;2023-11-21T07:25:30;5.82;;;4.68;;
27495;SDS011;14929;51.336;9.416;2023-11-21T07:27:58;3.67;;;3.38;;
27495;SDS011;14929;51.336;9.416;2023-11-21T07:30:26;4.47;;;3.65;;
27495;SDS011;14929;51.336;9.416;2023-11-21T07:32:53;3.78;;;3.47;;
27495;SDS011;14929;51.336;9.416;2023-11-21T07:35:22;5.88;;;3.97;;
27495;SDS011;14929;51.336;9.416;2023-11-21T07:37:49;4.20;;;3.80;;
27495;SDS011;14929;51.336;9.416;2023-11-21T07:40:17;4.32;;;3.72;;
27495;SDS011;14929;51.336;9.416;2023-11-21T07:42:44;4.05;;;3.75;;
27495;SDS011;14929;51.336;9.416;2023-11-21T07:45:12;3.78;;;3.17;;
27495;SDS011;14929;51.336;9.416;2023-11-21T07:47:40;4.07;;;3.63;;
27495;SDS011;14929;51.336;9.416;2023-11-21T07:50:08;3.40;;;3.05;;
27495;SDS011;14929;51.336;9.416;2023-11-21T07:52:38;5.05;;;3.60;;
27495;SDS011;14929;51.336;9.416;2023-11-21T07:55:05;3.30;;;3.00;;
27495;SDS011;14929;51.336;9.416;2023-11-21T07:57:33;3.80;;;3.40;;
27495;SDS011;14929;51.336;9.416;2023-11-21T08:00:01;4.03;;;3.70;;
27495;SDS011;14929;51.336;9.416;2023-11-21T08:02:31;4.82;;;3.70;;
27495;SDS011;14929;51.336;9.416;2023-11-21T08:04:59;6.53;;;5.25;;
27495;SDS011;14929;51.336;9.416;2023-11-21T08:07:27;4.40;;;3.90;;
27495;SDS011;14929;51.336;9.416;2023-11-21T08:09:55;2.75;;;2.55;;
27495;SDS011;14929;51.336;9.416;2023-11-21T08:12:23;4.00;;;3.35;;
27495;SDS011;14929;51.336;9.416;2023-11-21T08:14:52;3.53;;;3.22;;
27495;SDS011;14929;51.336;9.416;2023-11-21T08:17:20;4.20;;;3.88;;
27495;SDS011;14929;51.336;9.416;2023-11-21T08:19:48;6.15;;;4.07;;
27495;SDS011;14929;51.336;9.416;2023-11-21T08:22:16;4.78;;;3.97;;
27495;SDS011;14929;51.336;9.416;2023-11-21T08:24:43;3.47;;;3.10;;
27495;SDS011;14929;51.336;9.416;2023-11-21T08:27:13;4.32;;;3.70;;
27495;SDS011;14929;51.336;9.416;2023-11-21T08:29:41;4.32;;;3.05;;
27495;SDS011;14929;51.336;9.416;2023-11-21T08:32:08;4.22;;;3.72;;
27495;SDS011;14929;51.336;9.416;2023-11-21T08:34:36;4.43;;;3.45;;
27495;SDS011;14929;51.336;9.416;2023-11-21T08:37:05;4.13;;;3.00;;
27495;SDS011;14929;51.336;9.416;2023-11-21T08:39:32;6.68;;;5.32;;
27495;SDS011;14929;51.336;9.416;2023-11-21T08:41:59;6.88;;;4.63;;
27495;SDS011;14929;51.336;9.416;2023-11-21T08:44:28;5.57;;;5.03;;
27495;SDS011;14929;51.336;9.416;2023-11-21T08:46:56;5.07;;;4.47;;
27495;SDS011;14929;51.336;9.416;2023-11-21T08:49:24;7.35;;;5.38;;
27495;SDS011;14929;51.336;9.416;2023-11-21T08:51:52;4.03;;;3.63;;
27495;SDS011;14929;51.336;9.416;2023-11-21T08:54:20;3.92;;;3.63;;
27495;SDS011;14929;51.336;9.416;2023-11-21T08:56:48;6.75;;;4.40;;
27495;SDS011;14929;51.336;9.416;2023-11-21T08:59:15;5.70;;;4.75;;
27495;SDS011;14929;51.336;9.416;2023-11-21T09:01:44;6.07;;;4.20;;
27495;SDS011;14929;51.336;9.416;2023-11-21T09:04:11;4.07;;;3.67;;
27495;SDS011;14929;51.336;9.416;2023-11-21T09:06:39;4.28;;;3.88;;
27495;SDS011;14929;51.336;9.416;2023-11-21T09:09:06;7.28;;;5.60;;
27495;SDS011;14929;51.336;9.416;2023-11-21T09:11:35;7.70;;;5.53;;
27495;SDS011;14929;51.336;9.416;2023-11-21T09:14:02;8.50;;;6.13;;
27495;SDS011;14929;51.336;9.416;2023-11-21T09:16:32;6.95;;;5.68;;
27495;SDS011;14929;51.336;9.416;2023-11-21T09:19:01;6.72;;;5.70;;
27495;SDS011;14929;51.336;9.416;2023-11-21T09:21:30;4.85;;;3.28;;
27495;SDS011;14929;51.336;9.416;2023-11-21T09:23:58;4.55;;;4.15;;
27495;SDS011;14929;51.336;9.416;2023-11-21T09:26:25;3.50;;;3.20;;
27495;SDS011;14929;51.336;9.416;2023-11-21T09:28:53;5.55;;;4.68;;
27495;SDS011;14929;51.336;9.416;2023-11-21T09:31:21;4.63;;;4.22;;
27495;SDS011;14929;51.336;9.416;2023-11-21T09:33:49;3.63;;;3.33;;
27495;SDS011;14929;51.336;9.416;2023-11-21T09:36:18;4.07;;;3.50;;
27495;SDS011;14929;51.336;9.416;2023-11-21T09:38:47;3.60;;;3.17;;
27495;SDS011;14929;51.336;9.416;2023-11-21T09:41:18;3.58;;;3.28;;
27495;SDS011;14929;51.336;9.416;2023-11-21T09:43:50;5.13;;;3.38;;
27495;SDS011;14929;51.336;9.416;2023-11-21T09:46:22;3.85;;;3.55;;
27495;SDS011;14929;51.336;9.416;2023-11-21T09:48:50;5.07;;;4.57;;
27495;SDS011;14929;51.336;9.416;2023-11-21T09:51:20;4.30;;;3.90;;
27495;SDS011;14929;51.336;9.416;2023-11-21T09:53:49;4.15;;;3.72;;
27495;SDS011;14929;51.336;9.416;2023-11-21T09:56:18;4.28;;;3.85;;
27495;SDS011;14929;51.336;9.416;2023-11-21T09:58:50;3.78;;;3.47;;
27495;SDS011;14929;51.336;9.416;2023-11-21T10:01:19;4.80;;;4.10;;
27495;SDS011;14929;51.336;9.416;2023-11-21T10:03:47;5.65;;;4.78;;
27495;SDS011;14929;51.336;9.416;2023-11-21T10:06:15;5.95;;;5.20;;
27495;SDS011;14929;51.336;9.416;2023-11-21T10:08:44;7.30;;;6.30;;
27495;SDS011;14929;51.336;9.416;2023-11-21T10:11:12;8.63;;;6.55;;
27495;SDS011;14929;51.336;9.416;2023-11-21T10:13:41;6.82;;;5.63;;
27495;SDS011;14929;51.336;9.416;2023-11-21T10:16:10;5.95;;;5.40;;
27495;SDS011;14929;51.336;9.416;2023-11-21T10:18:41;5.85;;;4.47;;
27495;SDS011;14929;51.336;9.416;2023-11-21T10:21:11;5.47;;;4.97;;
27495;SDS011;14929;51.336;9.416;2023-11-21T10:23:38;4.40;;;4.00;;
27495;SDS011;14929;51.336;9.416;2023-11-21T10:26:10;4.22;;;3.70;;
27495;SDS011;14929;51.336;9.416;2023-11-21T10:28:41;5.97;;;5.35;;
27495;SDS011;14929;51.336;9.416;2023-11-21T10:31:21;5.95;;;4.93;;
27495;SDS011;14929;51.336;9.416;2023-11-21T10:33:49;4.18;;;3.80;;
27495;SDS011;14929;51.336;9.416;2023-11-21T10:36:24;4.28;;;3.97;;
27495;SDS011;14929;51.336;9.416;2023-11-21T10:38:52;7.03;;;6.07;;
27495;SDS011;14929;51.336;9.416;2023-11-21T10:41:23;6.63;;;4.45;;
27495;SDS011;14929;51.336;9.416;2023-11-21T10:43:52;6.35;;;4.90;;
27495;SDS011;14929;51.336;9.416;2023-11-21T10:46:21;5.57;;;5.05;;
27495;SDS011;14929;51.336;9.416;2023-11-21T10:48:52;5.82;;;5.28;;
27495;SDS011;14929;51.336;9.416;2023-11-21T10:51:21;5.53;;;5.03;;
27495;SDS011;14929;51.336;9.416;2023-11-21T10:53:50;4.65;;;4.25;;
27495;SDS011;14929;51.336;9.416;2023-11-21T10:56:19;5.32;;;4.68;;
27495;SDS011;14929;51.336;9.416;2023-11-21T10:58:51;5.32;;;3.88;;
27495;SDS011;14929;51.336;9.416;2023-11-21T11:01:19;5.28;;;4.78;;
27495;SDS011;14929;51.336;9.416;2023-11-21T11:03:48;4.70;;;4.15;;
27495;SDS011;14929;51.336;9.416;2023-11-21T11:06:19;3.65;;;3.35;;
27495;SDS011;14929;51.336;9.416;2023-11-21T11:08:47;5.25;;;4.78;;
27495;SDS011;14929;51.336;9.416;2023-11-21T11:11:15;4.72;;;4.30;;
27495;SDS011;14929;51.336;9.416;2023-11-21T11:13:45;4.75;;;4.28;;
27495;SDS011;14929;51.336;9.416;2023-11-21T11:16:12;4.93;;;4.43;;
27495;SDS011;14929;51.336;9.416;2023-11-21T11:18:42;6.03;;;5.30;;
27495;SDS011;14929;51.336;9.416;2023-11-21T11:21:15;5.68;;;5.07;;
27495;SDS011;14929;51.336;9.416;2023-11-21T11:23:59;6.30;;;5.22;;
27495;SDS011;14929;51.336;9.416;2023-11-21T11:26:42;4.93;;;3.88;;
27495;SDS011;14929;51.336;9.416;2023-11-21T11:29:18;11.13;;;6.68;;
27495;SDS011;14929;51.336;9.416;2023-11-21T11:31:55;8.00;;;6.03;;
27495;SDS011;14929;51.336;9.416;2023-11-21T11:34:35;4.68;;;3.70;;
27495;SDS011;14929;51.336;9.416;2023-11-21T11:37:06;5.18;;;3.75;;
27495;SDS011;14929;51.336;9.416;2023-11-21T11:39:35;4.03;;;3.58;;
27495;SDS011;14929;51.336;9.416;2023-11-21T11:42:04;3.40;;;3.03;;
27495;SDS011;14929;51.336;9.416;2023-11-21T11:44:47;3.65;;;3.00;;
27495;SDS011;14929;51.336;9.416;2023-11-21T11:47:22;3.60;;;2.90;;
27495;SDS011;14929;51.336;9.416;2023-11-21T11:49:56;4.90;;;4.05;;
27495;SDS011;14929;51.336;9.416;2023-11-21T11:52:33;9.52;;;8.38;;
27495;SDS011;14929;51.336;9.416;2023-11-21T11:55:06;17.95;;;14.98;;
27495;SDS011;14929;51.336;9.416;2023-11-21T11:57:38;9.55;;;7.70;;
27495;SDS011;14929;51.336;9.416;2023-11-21T12:00:12;7.45;;;6.63;;
27495;SDS011;14929;51.336;9.416;2023-11-21T12:02:45;6.28;;;5.55;;
27495;SDS011;14929;51.336;9.416;2023-11-21T12:05:14;5.75;;;5.15;;
27495;SDS011;14929;51.336;9.416;2023-11-21T12:07:48;7.20;;;6.30;;
27495;SDS011;14929;51.336;9.416;2023-11-21T12:10:18;7.55;;;6.85;;
27495;SDS011;14929;51.336;9.416;2023-11-21T12:12:48;6.90;;;6.20;;
27495;SDS011;14929;51.336;9.416;2023-11-21T12:15:19;6.18;;;5.20;;
27495;SDS011;14929;51.336;9.416;2023-11-21T12:17:47;6.18;;;5.22;;
27495;SDS011;14929;51.336;9.416;2023-11-21T12:20:16;5.38;;;4.68;;
27495;SDS011;14929;51.336;9.416;2023-11-21T12:22:46;5.45;;;4.95;;
27495;SDS011;14929;51.336;9.416;2023-11-21T12:25:15;6.53;;;5.10;;
27495;SDS011;14929;51.336;9.416;2023-11-21T12:27:43;5.97;;;5.05;;
27495;SDS011;14929;51.336;9.416;2023-11-21T12:30:12;6.85;;;5.95;;
27495;SDS011;14929;51.336;9.416;2023-11-21T12:32:42;11.60;;;8.18;;
27495;SDS011;14929;51.336;9.416;2023-11-21T12:35:12;6.65;;;5.95;;
27495;SDS011;14929;51.336;9.416;2023-11-21T12:37:41;6.05;;;5.18;;
27495;SDS011;14929;51.336;9.416;2023-11-21T12:40:09;6.43;;;5.60;;
27495;SDS011;14929;51.336;9.416;2023-11-21T12:42:40;5.82;;;5.25;;
27495;SDS011;14929;51.336;9.416;2023-11-21T12:45:09;5.25;;;4.72;;
27495;SDS011;14929;51.336;9.416;2023-11-21T12:47:48;6.47;;;5.88;;
27495;SDS011;14929;51.336;9.416;2023-11-21T12:50:18;5.60;;;5.10;;
27495;SDS011;14929;51.336;9.416;2023-11-21T12:52:48;6.72;;;5.82;;
27495;SDS011;14929;51.336;9.416;2023-11-21T12:55:19;6.72;;;6.03;;
27495;SDS011;14929;51.336;9.416;2023-11-21T12:57:48;7.10;;;6.35;;
27495;SDS011;14929;51.336;9.416;2023-11-21T13:00:20;6.78;;;6.18;;
27495;SDS011;14929;51.336;9.416;2023-11-21T13:02:57;6.53;;;5.90;;
27495;SDS011;14929;51.336;9.416;2023-11-21T13:05:28;6.35;;;5.72;;
27495;SDS011;14929;51.336;9.416;2023-11-21T13:07:59;6.60;;;5.95;;
27495;SDS011;14929;51.336;9.416;2023-11-21T13:10:29;6.35;;;5.45;;
27495;SDS011;14929;51.336;9.416;2023-11-21T13:13:00;6.03;;;5.43;;
27495;SDS011;14929;51.336;9.416;2023-11-21T13:15:30;7.88;;;6.68;;
27495;SDS011;14929;51.336;9.416;2023-11-21T13:18:01;7.40;;;6.07;;
27495;SDS011;14929;51.336;9.416;2023-11-21T13:20:28;9.07;;;8.00;;
27495;SDS011;14929;51.336;9.416;2023-11-21T13:22:57;7.25;;;6.43;;
27495;SDS011;14929;51.336;9.416;2023-11-21T13:25:26;8.25;;;7.43;;
27495;SDS011;14929;51.336;9.416;2023-11-21T13:27:56;9.85;;;8.88;;
27495;SDS011;14929;51.336;9.416;2023-11-21T13:30:25;9.73;;;8.93;;
27495;SDS011;14929;51.336;9.416;2023-11-21T13:32:58;5.57;;;5.10;;
27495;SDS011;14929;51.336;9.416;2023-11-21T13:35:30;4.45;;;4.07;;
27495;SDS011;14929;51.336;9.416;2023-11-21T13:38:03;4.68;;;4.35;;
27495;SDS011;14929;51.336;9.416;2023-11-21T13:40:32;3.97;;;3.70;;
27495;SDS011;14929;51.336;9.416;2023-11-21T13:43:07;3.95;;;3.65;;
27495;SDS011;14929;51.336;9.416;2023-11-21T13:45:35;3.03;;;2.83;;
27495;SDS011;14929;51.336;9.416;2023-11-21T13:48:06;4.45;;;4.05;;
27495;SDS011;14929;51.336;9.416;2023-11-21T13:50:35;5.30;;;4.45;;
27495;SDS011;14929;51.336;9.416;2023-11-21T13:53:04;3.70;;;3.38;;
27495;SDS011;14929;51.336;9.416;2023-11-21T13:55:35;3.75;;;3.45;;
27495;SDS011;14929;51.336;9.416;2023-11-21T13:58:04;4.38;;;4.07;;
27495;SDS011;14929;51.336;9.416;2023-11-21T14:00:35;3.78;;;3.47;;
27495;SDS011;14929;51.336;9.416;2023-11-21T14:03:08;3.67;;;3.38;;
27495;SDS011;14929;51.336;9.416;2023-11-21T14:05:42;5.80;;;5.30;;
27495;SDS011;14929;51.336;9.416;2023-11-21T14:08:12;7.25;;;6.55;;
27495;SDS011;14929;51.336;9.416;2023-11-21T14:10:42;7.25;;;6.63;;
27495;SDS011;14929;51.336;9.416;2023-11-21T14:13:14;6.70;;;5.55;;
27495;SDS011;14929;51.336;9.416;2023-11-21T14:15:42;6.80;;;6.00;;
27495;SDS011;14929;51.336;9.416;2023-11-21T14:18:17;7.18;;;6.20;;
27495;SDS011;14929;51.336;9.416;2023-11-21T14:20:52;8.18;;;6.80;;
27495;SDS011;14929;51.336;9.416;2023-11-21T14:23:19;4.43;;;3.80;;
27495;SDS011;14929;51.336;9.416;2023-11-21T14:25:48;6.97;;;6.28;;
27495;SDS011;14929;51.336;9.416;2023-11-21T14:28:16;6.78;;;5.72;;
27495;SDS011;14929;51.336;9.416;2023-11-21T14:30:44;7.32;;;6.18;;
27495;SDS011;14929;51.336;9.416;2023-11-21T14:33:12;8.10;;;7.45;;
27495;SDS011;14929;51.336;9.416;2023-11-21T14:35:42;7.18;;;6.47;;
27495;SDS011;14929;51.336;9.416;2023-11-21T14:38:11;8.00;;;7.28;;
27495;SDS011;14929;51.336;9.416;2023-11-21T14:40:39;6.95;;;6.25;;
27495;SDS011;14929;51.336;9.416;2023-11-21T14:43:07;5.68;;;5.10;;
27495;SDS011;14929;51.336;9.416;2023-11-21T14:45:34;5.75;;;4.75;;
27495;SDS011;14929;51.336;9.416;2023-11-21T14:48:02;5.85;;;5.35;;
27495;SDS011;14929;51.336;9.416;2023-11-21T14:50:40;4.60;;;4.20;;
27495;SDS011;14929;51.336;9.416;2023-11-21T14:53:23;4.70;;;4.30;;
27495;SDS011;14929;51.336;9.416;2023-11-21T14:56:08;5.65;;;5.10;;
27495;SDS011;14929;51.336;9.416;2023-11-21T14:58:35;6.72;;;6.03;;